Time;durP1;ratioP1;P1;durP2;ratioP2;P2;SDS_P1;SDS_P2;PMS_P1;PMS_P2;Temp;Humidity;BMP_temperature;BMP_pressure;BME280_temperature;BME280_humidity;BME280_pressure;Samples;Min_cycle;Max_cycle;Signal;HPM_P1;HPM_P2
2023/10/12 00:02:09;;;;;;;;;;;;;;;16.99;100.00;101125.31;5048331;28;20366;-74
2023/10/12 00:04:53;;;;;;;;;;;;;;;16.90;100.00;101125.22;5045175;28;20342;-76
2023/10/12 00:07:31;;;;;;;;;;;;;;;16.88;100.00;101124.50;5042949;28;19928;-76
2023/10/12 00:10:19;;;;;;;;;;;;;;;16.86;100.00;101128.38;5035044;28;19921;-75
2023/10/12 00:12:45;;;;;;;;;;;;;;;16.82;100.00;101130.53;5049963;28;20259;-75
2023/10/12 00:18:14;;;;;;;;;;;;;;;16.73;100.00;101121.47;5038600;28;19925;-75
2023/10/12 00:20:39;;;;;;;;;;;;;;;16.70;100.00;101138.03;5053057;28;19971;-75
2023/10/12 00:23:13;;;;;;;;;;;;;;;16.67;100.00;101138.34;5057632;28;20004;-74
2023/10/12 00:25:45;;;;;;;;;;;;;;;16.59;100.00;101151.78;5054016;28;19920;-74
2023/10/12 00:28:13;;;;;;;;;;;;;;;16.55;100.00;101139.56;5062659;28;19924;-74
2023/10/12 00:30:38;;;;;;;;;;;;;;;16.52;100.00;101151.56;5064281;28;20596;-73
2023/10/12 00:33:03;;;;;;;;;;;;;;;16.53;100.00;101150.56;5047151;28;19990;-75
2023/10/12 00:35:29;;;;;;;;;;;;;;;16.43;100.00;101164.16;5061874;28;20013;-76
2023/10/12 00:37:54;;;;;;;;;;;;;;;16.41;100.00;101158.03;5046033;28;19971;-76
2023/10/12 00:40:26;;;;;;;;;;;;;;;16.40;100.00;101148.19;5057020;28;19946;-74
2023/10/12 00:42:52;;;;;;;;;;;;;;;16.34;100.00;101162.34;5051802;28;19920;-76
2023/10/12 00:45:28;;;;;;;;;;;;;;;16.30;100.00;101175.34;5024760;28;19925;-75
2023/10/12 00:47:54;;;;;;;;;;;;;;;16.25;100.00;101174.94;5056497;28;20027;-75
2023/10/12 00:50:19;;;;;;;;;;;;;;;16.24;100.00;101183.22;5041074;28;19924;-75
2023/10/12 00:52:57;;;;;;;;;;;;;;;16.21;100.00;101178.09;5042223;28;19947;-74
2023/10/12 00:55:34;;;;;;;;;;;;;;;16.18;100.00;101190.06;5042151;28;19953;-77
2023/10/12 00:58:00;;;;;;;;;;;;;;;16.16;100.00;101200.19;5058192;28;19924;-76
2023/10/12 01:00:26;;;;;;;;;;;;;;;16.10;100.00;101193.50;5042889;28;19935;-77
2023/10/12 01:03:07;;;;;;;;;;;;;;;16.10;100.00;101207.06;5055963;28;19925;-78
2023/10/12 01:05:35;;;;;;;;;;;;;;;16.09;100.00;101209.91;5043733;28;19989;-77
2023/10/12 01:08:04;;;;;;;;;;;;;;;16.06;100.00;101212.91;5042120;28;19959;-77
2023/10/12 01:10:31;;;;;;;;;;;;;;;16.09;100.00;101218.03;5041514;28;19959;-76
2023/10/12 01:12:57;;;;;;;;;;;;;;;16.02;100.00;101215.91;5041445;28;19947;-78
2023/10/12 01:15:27;;;;;;;;;;;;;;;15.98;100.00;101211.78;5056835;28;20367;-74
2023/10/12 01:17:52;;;;;;;;;;;;;;;16.01;100.00;101221.50;5024204;28;19950;-78
2023/10/12 01:20:25;;;;;;;;;;;;;;;15.96;100.00;101229.19;5032492;28;19931;-78
2023/10/12 01:22:51;;;;;;;;;;;;;;;15.96;100.00;101215.66;5032892;28;20031;-76
2023/10/12 01:25:20;;;;;;;;;;;;;;;15.97;100.00;101210.09;5015393;28;19920;-76
2023/10/12 01:27:46;;;;;;;;;;;;;;;15.97;100.00;101214.66;5046851;28;19925;-76
2023/10/12 01:30:15;;;;;;;;;;;;;;;15.90;100.00;101203.53;5013782;28;19935;-75
2023/10/12 01:32:41;;;;;;;;;;;;;;;15.88;100.00;101213.69;5051144;28;19921;-76
2023/10/12 01:35:07;;;;;;;;;;;;;;;15.87;100.00;101222.81;5035896;28;19920;-79
2023/10/12 01:37:41;;;;;;;;;;;;;;;15.83;100.00;101230.31;5034603;28;19943;-77
2023/10/12 01:45:03;;;;;;;;;;;;;;;15.78;100.00;101232.59;5049563;28;19928;-76
2023/10/12 01:47:28;;;;;;;;;;;;;;;15.73;100.00;101226.78;5031605;28;19928;-76
2023/10/12 01:49:54;;;;;;;;;;;;;;;15.75;100.00;101213.94;5029761;28;19968;-78
2023/10/12 01:52:19;;;;;;;;;;;;;;;15.73;100.00;101208.66;5015397;28;20011;-78
2023/10/12 01:54:48;;;;;;;;;;;;;;;15.71;100.00;101178.19;5033024;28;20332;-77
2023/10/12 01:57:13;;;;;;;;;;;;;;;15.73;100.00;101184.31;5028723;28;19958;-78
2023/10/12 01:59:39;;;;;;;;;;;;;;;15.72;100.00;101174.47;5050688;28;19924;-77
2023/10/12 02:02:13;;;;;;;;;;;;;;;15.72;100.00;101179.88;5018765;28;19945;-76
2023/10/12 02:04:39;;;;;;;;;;;;;;;15.72;100.00;101195.28;5032135;28;19925;-77
2023/10/12 02:07:10;;;;;;;;;;;;;;;15.57;100.00;101201.13;5048056;28;20012;-77
2023/10/12 02:09:35;;;;;;;;;;;;;;;15.62;100.00;101198.00;5047559;28;19925;-77
2023/10/12 02:12:10;;;;;;;;;;;;;;;15.60;100.00;101191.88;5057374;28;19927;-76
2023/10/12 02:14:39;;;;;;;;;;;;;;;15.48;100.00;101191.19;5046333;28;19920;-76
2023/10/12 02:17:05;;;;;;;;;;;;;;;15.39;100.00;101190.16;5028728;28;20007;-77
2023/10/12 02:20:10;;;;;;;;;;;;;;;15.37;100.00;101192.16;5052053;28;19924;-76
2023/10/12 02:22:28;;;;;;;;;;;;;;;15.32;100.00;101207.13;5048627;28;20433;-78
2023/10/12 02:25:18;;;;;;;;;;;;;;;15.35;100.00;101217.66;5052696;28;20178;-77
2023/10/12 02:27:54;;;;;;;;;;;;;;;15.27;100.00;101219.22;5049788;28;19925;-76
2023/10/12 02:30:20;;;;;;;;;;;;;;;15.28;100.00;101209.25;5051546;28;19924;-77
2023/10/12 02:33:00;;;;;;;;;;;;;;;15.24;100.00;101213.25;5053881;28;19939;-75
2023/10/12 02:35:25;;;;;;;;;;;;;;;15.30;100.00;101237.88;5049007;28;20329;-76
2023/10/12 02:37:50;;;;;;;;;;;;;;;15.29;100.00;101225.34;5047575;28;20358;-77
2023/10/12 02:40:16;;;;;;;;;;;;;;;15.30;100.00;101235.16;5044846;28;20058;-76
2023/10/12 02:42:43;;;;;;;;;;;;;;;15.24;100.00;101218.66;5048139;28;19970;-73
2023/10/12 02:45:10;;;;;;;;;;;;;;;15.24;100.00;101218.66;5024315;28;20554;-76
2023/10/12 02:47:40;;;;;;;;;;;;;;;15.17;100.00;101220.19;5028875;28;20020;-75
2023/10/12 02:52:35;;;;;;;;;;;;;;;15.30;100.00;101193.75;5047510;28;20460;-76
2023/10/12 02:55:17;;;;;;;;;;;;;;;15.28;100.00;101164.13;5047934;28;20003;-76
2023/10/12 02:57:53;;;;;;;;;;;;;;;15.27;100.00;101184.03;5030157;28;19924;-78
2023/10/12 03:00:19;;;;;;;;;;;;;;;15.18;100.00;101186.75;5035270;28;20023;-78
2023/10/12 03:02:51;;;;;;;;;;;;;;;15.22;100.00;101186.34;5031336;28;20285;-77
2023/10/12 03:05:47;;;;;;;;;;;;;;;15.23;100.00;101177.19;5053112;28;19920;-77
2023/10/12 03:08:06;;;;;;;;;;;;;;;15.19;100.00;101165.00;5047771;28;19931;-76
2023/10/12 03:10:32;;;;;;;;;;;;;;;15.19;100.00;101172.22;5028078;28;19920;-77
2023/10/12 03:13:04;;;;;;;;;;;;;;;15.14;100.00;101165.38;5014137;28;19920;-77
2023/10/12 03:15:42;;;;;;;;;;;;;;;15.12;100.00;101167.38;5029708;28;19993;-76
2023/10/12 03:18:11;;;;;;;;;;;;;;;15.11;100.00;101151.31;5029370;28;19928;-76
2023/10/12 03:20:37;;;;;;;;;;;;;;;15.03;100.00;101164.66;5028476;28;19927;-74
2023/10/12 03:23:12;;;;;;;;;;;;;;;15.06;100.00;101145.47;5046068;28;19920;-75
2023/10/12 03:25:43;;;;;;;;;;;;;;;15.03;100.00;101135.81;5029534;28;21168;-76
2023/10/12 03:28:29;;;;;;;;;;;;;;;15.00;100.00;101130.66;5047410;28;20385;-75
2023/10/12 03:30:57;;;;;;;;;;;;;;;14.96;100.00;101132.78;5034201;28;20349;-76
2023/10/12 03:33:28;;;;;;;;;;;;;;;14.93;100.00;101148.44;5036118;28;20030;-76
2023/10/12 03:38:38;;;;;;;;;;;;;;;14.86;100.00;101175.19;5031644;28;20190;-75
2023/10/12 03:43:49;;;;;;;;;;;;;;;14.92;100.00;101198.09;5029530;28;19990;-76
2023/10/12 03:46:26;;;;;;;;;;;;;;;14.95;100.00;101195.13;5028591;28;19925;-76
2023/10/12 03:49:08;;;;;;;;;;;;;;;14.90;100.00;101194.69;5047306;28;19928;-74
2023/10/12 03:51:41;;;;;;;;;;;;;;;14.80;100.00;101187.44;5032289;28;19924;-75
2023/10/12 03:54:45;;;;;;;;;;;;;;;14.74;100.00;101182.56;5056707;28;19920;-75
2023/10/12 03:57:07;;;;;;;;;;;;;;;14.69;100.00;101192.94;5038514;28;19947;-77
2023/10/12 03:59:44;;;;;;;;;;;;;;;14.68;100.00;101188.47;5039245;28;19920;-74
2023/10/12 04:02:14;;;;;;;;;;;;;;;14.69;100.00;101187.53;5034208;28;19920;-74
2023/10/12 04:04:51;;;;;;;;;;;;;;;14.70;100.00;101183.84;5021508;28;19932;-75
2023/10/12 04:07:16;;;;;;;;;;;;;;;14.64;100.00;101190.63;5036869;28;19924;-73
2023/10/12 04:09:42;;;;;;;;;;;;;;;14.65;100.00;101186.94;5036855;28;20295;-75
2023/10/12 04:14:53;;;;;;;;;;;;;;;14.60;100.00;101196.41;5049308;28;20324;-75
2023/10/12 04:22:41;;;;;;;;;;;;;;;14.62;100.00;101202.53;5052639;28;19974;-74
2023/10/12 04:25:14;;;;;;;;;;;;;;;14.63;100.00;101210.53;5053218;28;20006;-73
2023/10/12 04:27:50;;;;;;;;;;;;;;;14.63;100.00;101209.66;5053942;28;20444;-74
2023/10/12 04:38:19;;;;;;;;;;;;;;;14.49;100.00;101202.78;5055005;28;19927;-75
2023/10/12 04:41:13;;;;;;;;;;;;;;;14.45;100.00;101193.22;5054914;28;20401;-73
2023/10/12 04:43:29;;;;;;;;;;;;;;;14.46;100.00;101189.53;5055285;28;20456;-73
2023/10/12 04:48:41;;;;;;;;;;;;;;;14.43;100.00;101203.34;5057832;28;19996;-74
2023/10/12 04:51:07;;;;;;;;;;;;;;;14.43;100.00;101203.34;5056705;28;20314;-72
2023/10/12 04:53:53;;;;;;;;;;;;;;;14.44;100.00;101208.59;5036000;28;20504;-73
2023/10/12 04:56:18;;;;;;;;;;;;;;;14.38;100.00;101218.09;5041253;28;19956;-73
2023/10/12 04:58:56;;;;;;;;;;;;;;;14.40;100.00;101212.56;5055386;28;20117;-73
2023/10/12 05:01:29;;;;;;;;;;;;;;;14.39;100.00;101206.31;5051291;28;19924;-74
2023/10/12 05:04:18;;;;;;;;;;;;;;;14.38;100.00;101204.59;5053021;28;20373;-73
2023/10/12 05:06:56;;;;;;;;;;;;;;;14.36;100.00;101192.22;5048761;28;19924;-75
2023/10/12 05:09:21;;;;;;;;;;;;;;;14.37;100.00;101199.31;5045478;28;19920;-73
2023/10/12 05:11:47;;;;;;;;;;;;;;;14.35;100.00;101214.81;5047857;28;19920;-72
2023/10/12 05:14:15;;;;;;;;;;;;;;;14.22;100.00;101205.09;5028921;28;19989;-73
2023/10/12 05:16:45;;;;;;;;;;;;;;;14.33;100.00;101206.84;5032170;28;20430;-74
2023/10/12 05:19:10;;;;;;;;;;;;;;;14.32;100.00;101221.34;5053594;28;19956;-74
2023/10/12 05:21:36;;;;;;;;;;;;;;;14.37;100.00;101221.81;5032573;28;20031;-75
2023/10/12 05:24:01;;;;;;;;;;;;;;;14.35;100.00;101214.81;5020265;28;19920;-73
2023/10/12 05:26:26;;;;;;;;;;;;;;;14.38;100.00;101210.00;5051413;28;19954;-72
2023/10/12 05:31:49;;;;;;;;;;;;;;;14.36;100.00;101189.50;5023543;28;20501;-77
2023/10/12 05:34:32;;;;;;;;;;;;;;;14.37;100.00;101196.63;5041103;28;20287;-74
2023/10/12 05:36:59;;;;;;;;;;;;;;;14.40;100.00;101201.75;5041362;28;19929;-72
2023/10/12 05:39:27;;;;;;;;;;;;;;;14.40;100.00;101196.34;5052544;28;19924;-73
2023/10/12 05:41:56;;;;;;;;;;;;;;;14.41;100.00;101198.06;5055976;28;21512;-74
2023/10/12 05:44:26;;;;;;;;;;;;;;;14.42;100.00;101199.78;5054620;28;20027;-75
2023/10/12 05:46:52;;;;;;;;;;;;;;;14.42;100.00;101202.47;5035934;28;20436;-74
2023/10/12 05:49:17;;;;;;;;;;;;;;;14.42;100.00;101209.75;5056267;28;19924;-73
2023/10/12 05:51:44;;;;;;;;;;;;;;;14.45;100.00;101218.41;5037961;28;20042;-72
2023/10/12 05:54:09;;;;;;;;;;;;;;;14.45;100.00;101210.31;5055638;28;19943;-73
2023/10/12 05:56:35;;;;;;;;;;;;;;;14.47;100.00;101224.53;5050763;28;20501;-75
2023/10/12 05:59:00;;;;;;;;;;;;;;;14.47;100.00;101223.66;5033555;28;20019;-72
2023/10/12 06:01:32;;;;;;;;;;;;;;;14.49;100.00;101222.56;5019620;28;19917;-73
2023/10/12 06:03:57;;;;;;;;;;;;;;;14.52;100.00;101227.69;5038327;28;19921;-75
2023/10/12 06:06:23;;;;;;;;;;;;;;;14.52;100.00;101226.81;5037821;28;20315;-73
2023/10/12 06:08:48;;;;;;;;;;;;;;;14.52;100.00;101224.13;5054431;28;19924;-73
2023/10/12 06:11:15;;;;;;;;;;;;;;;14.52;100.00;101224.13;5054013;28;19920;-73
2023/10/12 06:13:42;;;;;;;;;;;;;;;14.50;100.00;101226.09;5035090;28;19995;-72
2023/10/12 06:16:20;;;;;;;;;;;;;;;14.48;100.00;101239.75;5053168;28;19989;-72
2023/10/12 06:18:45;;;;;;;;;;;;;;;14.48;100.00;101238.88;5038356;28;20046;-71
2023/10/12 06:21:17;;;;;;;;;;;;;;;14.48;100.00;101236.19;5055442;28;20225;-71
2023/10/12 06:23:44;;;;;;;;;;;;;;;14.50;100.00;101242.31;5038842;28;19960;-72
2023/10/12 06:26:17;;;;;;;;;;;;;;;14.49;100.00;101236.06;5055405;28;19924;-71
2023/10/12 06:28:42;;;;;;;;;;;;;;;14.47;100.00;101234.47;5038678;28;19920;-73
2023/10/12 06:31:08;;;;;;;;;;;;;;;14.48;100.00;101247.00;5038672;28;19951;-71
2023/10/12 06:33:33;;;;;;;;;;;;;;;14.49;100.00;101244.19;5053882;28;19920;-71
2023/10/12 06:35:58;;;;;;;;;;;;;;;14.51;100.00;101244.91;5032416;28;20279;-73
2023/10/12 06:38:37;;;;;;;;;;;;;;;14.53;100.00;101255.56;5047466;28;20286;-72
2023/10/12 06:41:28;;;;;;;;;;;;;;;14.51;100.00;101255.72;5051588;28;19924;-71
2023/10/12 06:46:15;;;;;;;;;;;;;;;14.46;100.00;101244.44;5051390;28;19970;-72
2023/10/12 06:48:44;;;;;;;;;;;;;;;14.50;100.00;101243.19;5034892;28;20041;-71
2023/10/12 06:51:15;;;;;;;;;;;;;;;14.52;100.00;101249.31;5031918;28;19920;-73
2023/10/12 06:53:44;;;;;;;;;;;;;;;14.50;100.00;101255.81;5035803;28;19920;-71
2023/10/12 06:58:40;;;;;;;;;;;;;;;14.52;100.00;101275.47;5055277;28;19920;-72
2023/10/12 07:01:26;;;;;;;;;;;;;;;14.52;100.00;101275.47;5048653;28;19928;-71
2023/10/12 07:03:52;;;;;;;;;;;;;;;14.53;100.00;101279.88;5035315;28;19920;-71
2023/10/12 07:06:17;;;;;;;;;;;;;;;14.60;100.00;101278.34;5054408;28;20023;-73
2023/10/12 07:08:43;;;;;;;;;;;;;;;14.54;100.00;101287.00;5054346;28;20035;-71
2023/10/12 07:11:11;;;;;;;;;;;;;;;14.57;100.00;101294.84;5036285;28;19982;-74
2023/10/12 07:13:39;;;;;;;;;;;;;;;14.56;100.00;101295.81;5053651;28;19931;-72
2023/10/12 07:16:06;;;;;;;;;;;;;;;14.58;100.00;101293.84;5036595;28;19942;-74
2023/10/12 07:18:34;;;;;;;;;;;;;;;14.59;100.00;101305.50;5053574;28;19947;-74
2023/10/12 07:20:59;;;;;;;;;;;;;;;14.59;100.00;101311.75;5033949;28;19931;-71
2023/10/12 07:23:35;;;;;;;;;;;;;;;14.60;100.00;101318.00;5053095;28;20265;-73
2023/10/12 07:26:01;;;;;;;;;;;;;;;14.57;100.00;101318.31;5019158;28;19917;-72
2023/10/12 07:28:32;;;;;;;;;;;;;;;14.64;100.00;101320.34;5051094;28;19923;-72
2023/10/12 07:31:25;;;;;;;;;;;;;;;14.68;100.00;101334.41;5053568;28;19927;-72
2023/10/12 07:36:37;;;;;;;;;;;;;;;14.63;100.00;101334.84;5029600;28;20301;-72
2023/10/12 07:39:17;;;;;;;;;;;;;;;14.65;100.00;101337.38;5035359;28;19928;-72
2023/10/12 07:41:49;;;;;;;;;;;;;;;14.65;100.00;101348.19;5054040;28;19920;-73
2023/10/12 07:44:15;;;;;;;;;;;;;;;14.73;100.00;101343.03;5052276;28;20293;-73
2023/10/12 07:46:42;;;;;;;;;;;;;;;14.76;100.00;101345.47;5053667;28;20374;-74
2023/10/12 07:49:25;;;;;;;;;;;;;;;14.73;100.00;101347.56;5036453;28;20046;-72
2023/10/12 07:52:21;;;;;;;;;;;;;;;14.75;100.00;101349.16;5053919;28;19920;-71
2023/10/12 07:54:47;;;;;;;;;;;;;;;14.68;100.00;101348.84;5033547;28;19920;-72
2023/10/12 07:57:13;;;;;;;;;;;;;;;14.72;100.00;101351.25;5051820;28;19924;-71
2023/10/12 07:59:38;;;;;;;;;;;;;;;14.76;100.00;101353.56;5032129;28;19916;-71
2023/10/12 08:02:08;;;;;;;;;;;;;;;14.73;100.00;101351.13;5030806;28;19917;-74
2023/10/12 08:04:33;;;;;;;;;;;;;;;14.75;100.00;101361.78;5052467;28;19920;-72
2023/10/12 08:07:00;;;;;;;;;;;;;;;14.70;100.00;101359.50;5036796;28;19931;-72
2023/10/12 08:11:51;;;;;;;;;;;;;;;14.75;100.00;101365.38;5034155;28;20168;-73
2023/10/12 08:17:24;;;;;;;;;;;;;;;14.82;100.00;101361.16;5033287;28;19962;-72
2023/10/12 08:19:42;;;;;;;;;;;;;;;14.81;100.00;101367.53;5034575;28;19932;-73
2023/10/12 08:22:26;;;;;;;;;;;;;;;14.83;100.00;101368.22;5032794;28;19920;-73
2023/10/12 08:24:56;;;;;;;;;;;;;;;14.87;100.00;101368.84;5029843;28;19927;-71
2023/10/12 08:27:21;;;;;;;;;;;;;;;14.91;100.00;101366.72;5046112;28;20412;-73
2023/10/12 08:32:33;;;;;;;;;;;;;;;14.77;100.00;101368.78;5036186;28;19927;-72
2023/10/12 08:37:26;;;;;;;;;;;;;;;14.74;100.00;101369.06;5053302;28;20264;-74
2023/10/12 08:40:05;;;;;;;;;;;;;;;14.82;100.00;101374.66;5036908;28;20019;-73
2023/10/12 08:45:00;;;;;;;;;;;;;;;14.76;100.00;101380.59;5035212;28;19970;-74
2023/10/12 08:50:08;;;;;;;;;;;;;;;14.85;100.00;101385.19;5041550;28;19927;-75
2023/10/12 08:52:34;;;;;;;;;;;;;;;14.85;100.00;101381.63;5023008;28;19924;-74
2023/10/12 08:55:04;;;;;;;;;;;;;;;14.85;100.00;101390.59;5035483;28;20007;-75
2023/10/12 08:57:55;;;;;;;;;;;;;;;14.79;100.00;101380.34;5037949;28;20419;-73
2023/10/12 09:03:00;;;;;;;;;;;;;;;14.71;100.00;101385.53;5041333;28;19931;-73
2023/10/12 09:05:28;;;;;;;;;;;;;;;14.76;100.00;101382.41;5036051;28;19942;-73
2023/10/12 09:10:48;;;;;;;;;;;;;;;14.72;100.00;101370.16;5041488;28;19928;-74
2023/10/12 09:13:17;;;;;;;;;;;;;;;14.68;100.00;101370.47;5042582;28;19958;-74
2023/10/12 09:15:45;;;;;;;;;;;;;;;14.74;100.00;101371.75;5038839;28;19920;-73
2023/10/12 09:18:11;;;;;;;;;;;;;;;14.67;100.00;101373.25;5023117;28;19961;-74
2023/10/12 09:20:40;;;;;;;;;;;;;;;14.74;100.00;101374.47;5039588;28;20312;-74
2023/10/12 09:23:12;;;;;;;;;;;;;;;14.81;100.00;101382.88;5035351;28;20061;-76
2023/10/12 09:26:13;;;;;;;;;;;;;;;14.89;100.00;101385.78;5021379;28;19920;-75
2023/10/12 09:31:13;;;;;;;;;;;;;;;15.07;100.00;101379.72;5040818;28;19916;-76
2023/10/12 09:33:45;;;;;;;;;;;;;;;15.04;100.00;101377.28;5034806;28;19921;-75
2023/10/12 09:36:10;;;;;;;;;;;;;;;15.05;100.00;101381.72;5050739;28;19925;-76
2023/10/12 09:38:38;;;;;;;;;;;;;;;15.02;100.00;101377.44;5035147;28;20025;-76
2023/10/12 09:41:03;;;;;;;;;;;;;;;15.08;100.00;101376.91;5018301;28;19932;-77
2023/10/12 09:43:30;;;;;;;;;;;;;;;15.19;100.00;101380.50;5034974;28;20106;-74
2023/10/12 09:45:58;;;;;;;;;;;;;;;15.23;100.00;101382.78;5036574;28;19920;-77
2023/10/12 09:48:29;;;;;;;;;;;;;;;15.35;100.00;101374.56;5023797;28;19939;-77
2023/10/12 09:50:55;;;;;;;;;;;;;;;15.42;100.00;101375.72;5018900;28;21154;-76
2023/10/12 09:53:24;;;;;;;;;;;;;;;15.53;100.00;101381.00;5036882;28;19974;-76
2023/10/12 09:56:10;;;;;;;;;;;;;;;15.51;100.00;101380.28;5023248;28;20357;-76
2023/10/12 09:58:43;;;;;;;;;;;;;;;15.66;100.00;101374.50;5018240;28;20280;-76
2023/10/12 10:01:15;;;;;;;;;;;;;;;15.73;100.00;101378.38;5026649;28;19916;-76
2023/10/12 10:03:50;;;;;;;;;;;;;;;15.69;100.00;101371.53;5031320;28;19963;-78
2023/10/12 10:06:45;;;;;;;;;;;;;;;15.55;100.00;101362.78;5018366;28;20395;-77
2023/10/12 10:11:41;;;;;;;;;;;;;;;15.43;100.00;101353.94;5035611;28;19928;-75
2023/10/12 10:14:13;;;;;;;;;;;;;;;15.38;100.00;101361.59;5032581;28;19925;-75
2023/10/12 10:16:46;;;;;;;;;;;;;;;15.30;100.00;101342.53;5017430;28;20354;-76
2023/10/12 10:19:16;;;;;;;;;;;;;;;15.54;100.00;101368.34;5036290;28;19925;-76
2023/10/12 10:21:53;;;;;;;;;;;;;;;15.68;100.00;101378.75;5020529;28;19958;-75
2023/10/12 10:24:25;;;;;;;;;;;;;;;15.70;100.00;101378.66;5035882;28;19924;-76
2023/10/12 10:26:58;;;;;;;;;;;;;;;15.61;100.00;101380.34;5037858;28;20377;-76
2023/10/12 10:29:38;;;;;;;;;;;;;;;15.57;100.00;101378.91;5036952;28;19947;-75
2023/10/12 10:32:03;;;;;;;;;;;;;;;15.58;100.00;101375.22;5018597;28;19921;-75
2023/10/12 10:34:34;;;;;;;;;;;;;;;15.58;100.00;101375.22;5017359;28;19927;-75
2023/10/12 10:36:59;;;;;;;;;;;;;;;15.61;100.00;101366.81;5038276;28;19964;-75
2023/10/12 10:39:30;;;;;;;;;;;;;;;15.68;100.00;101369.81;5035456;28;19970;-75
2023/10/12 10:42:00;;;;;;;;;;;;;;;15.70;100.00;101370.53;5035765;28;20010;-76
2023/10/12 10:44:26;;;;;;;;;;;;;;;15.75;100.00;101373.66;5034515;28;19916;-75
2023/10/12 10:47:00;;;;;;;;;;;;;;;15.83;100.00;101367.53;5035074;28;19924;-75
2023/10/12 10:49:30;;;;;;;;;;;;;;;15.84;100.00;101375.50;5034742;28;20286;-75
2023/10/12 10:54:37;;;;;;;;;;;;;;;15.85;100.00;101365.56;5034874;28;19924;-74
2023/10/12 10:57:04;;;;;;;;;;;;;;;15.80;100.00;101370.53;5036416;28;20574;-74
2023/10/12 10:59:34;;;;;;;;;;;;;;;15.79;100.00;101366.94;5033817;28;19988;-74
2023/10/12 11:01:59;;;;;;;;;;;;;;;15.77;100.00;101363.53;5031535;28;20041;-74
2023/10/12 11:04:41;;;;;;;;;;;;;;;15.78;100.00;101367.94;5036314;28;20011;-74
2023/10/12 11:07:11;;;;;;;;;;;;;;;15.85;100.00;101366.41;5052166;28;19924;-74
2023/10/12 11:12:20;;;;;;;;;;;;;;;15.94;100.00;101364.72;5042148;28;20416;-74
2023/10/12 11:14:58;;;;;;;;;;;;;;;16.01;100.00;101357.75;5036052;28;20389;-75
2023/10/12 11:17:23;;;;;;;;;;;;;;;15.98;100.00;101358.03;5037867;28;19921;-75
2023/10/12 11:19:50;;;;;;;;;;;;;;;16.05;100.00;101352.88;5034742;28;20408;-75
2023/10/12 11:22:15;;;;;;;;;;;;;;;15.99;100.00;101353.47;5052803;28;19922;-74
2023/10/12 11:24:44;;;;;;;;;;;;;;;15.99;100.00;101346.19;5018701;28;20252;-73
2023/10/12 11:27:11;;;;;;;;;;;;;;;15.98;100.00;101336.34;5049699;28;20280;-74
2023/10/12 11:29:50;;;;;;;;;;;;;;;16.00;100.00;101342.50;5051585;28;19924;-75
2023/10/12 11:32:16;;;;;;;;;;;;;;;15.74;100.00;101315.94;5031562;28;19920;-72
2023/10/12 11:34:42;;;;;;;;;;;;;;;16.04;100.00;101341.22;5034864;28;19927;-73
2023/10/12 11:37:07;;;;;;;;;;;;;;;15.97;100.00;101344.63;5052391;28;19924;-74
2023/10/12 11:39:42;;;;;;;;;;;;;;;15.96;100.00;101338.34;5029856;28;19983;-74
2023/10/12 11:42:07;;;;;;;;;;;;;;;16.00;100.00;101341.66;5032562;28;19975;-73
2023/10/12 11:44:33;;;;;;;;;;;;;;;16.03;100.00;101342.22;5029646;28;20386;-72
2023/10/12 11:47:00;;;;;;;;;;;;;;;15.86;100.00;101332.94;5033829;28;20815;-74
2023/10/12 11:49:26;;;;;;;;;;;;;;;15.97;100.00;101341.94;5031586;28;19927;-75
2023/10/12 11:51:51;;;;;;;;;;;;;;;16.06;100.00;101334.78;5028592;28;20342;-73
2023/10/12 11:54:19;;;;;;;;;;;;;;;16.15;100.00;101333.94;5029024;28;19963;-75
2023/10/12 11:56:45;;;;;;;;;;;;;;;16.21;100.00;101329.78;5015546;28;19970;-73
2023/10/12 11:59:13;;;;;;;;;;;;;;;16.19;100.00;101336.22;5033541;28;20081;-76
2023/10/12 12:01:40;;;;;;;;;;;;;;;16.19;100.00;101330.78;5033839;28;19945;-74
2023/10/12 12:04:10;;;;;;;;;;;;;;;16.17;100.00;101331.91;5035035;28;20334;-71
2023/10/12 12:06:36;;;;;;;;;;;;;;;16.27;100.00;101331.94;5029502;28;20332;-72
2023/10/12 12:09:07;;;;;;;;;;;;;;;16.29;100.00;101325.34;5031715;28;19917;-73
2023/10/12 12:11:37;;;;;;;;;;;;;;;16.33;100.00;101321.34;5030604;28;20270;-72
2023/10/12 12:14:06;;;;;;;;;;;;;;;16.31;100.00;101319.78;5034295;28;20039;-71
2023/10/12 12:16:31;;;;;;;;;;;;;;;16.43;100.00;101328.59;5035439;28;19925;-73
2023/10/12 12:18:57;;;;;;;;;;;;;;;16.44;100.00;101327.59;5033675;28;19928;-73
2023/10/12 12:21:34;;;;;;;;;;;;;;;16.49;100.00;101328.00;5031247;28;19956;-74
2023/10/12 12:26:49;;;;;;;;;;;;;;;16.40;100.00;101321.63;5030662;28;19944;-76
2023/10/12 12:29:15;;;;;;;;;;;;;;;16.39;100.00;101319.91;5034771;28;19931;-72
2023/10/12 12:31:41;;;;;;;;;;;;;;;16.33;100.00;101318.66;5034945;28;20428;-72
2023/10/12 12:34:06;;;;;;;;;;;;;;;16.38;100.00;101320.91;5036682;28;19925;-72
2023/10/12 12:36:31;;;;;;;;;;;;;;;16.44;100.00;101312.19;5033673;28;19921;-73
2023/10/12 12:39:12;;;;;;;;;;;;;;;16.50;100.00;101302.63;5037388;28;20163;-73
2023/10/12 12:41:37;;;;;;;;;;;;;;;16.57;100.00;101289.31;5039756;28;19920;-74
2023/10/12 12:44:03;;;;;;;;;;;;;;;16.54;100.00;101287.78;5037603;28;19927;-72
2023/10/12 12:46:30;;;;;;;;;;;;;;;16.57;100.00;101292.91;5055748;28;20371;-74
2023/10/12 12:48:56;;;;;;;;;;;;;;;16.63;100.00;101295.03;5036506;28;20418;-71
2023/10/12 12:51:21;;;;;;;;;;;;;;;16.55;100.00;101297.63;5057355;28;19954;-71
2023/10/12 12:53:47;;;;;;;;;;;;;;;16.45;100.00;101296.78;5051338;28;19943;-72
2023/10/12 12:56:16;;;;;;;;;;;;;;;16.39;100.00;101289.25;5036750;28;19924;-73
2023/10/12 12:58:46;;;;;;;;;;;;;;;16.45;100.00;101280.53;5039692;28;19921;-71
2023/10/12 13:01:12;;;;;;;;;;;;;;;16.39;100.00;101276.56;5053292;28;19967;-72
2023/10/12 13:03:37;;;;;;;;;;;;;;;16.40;100.00;101274.72;5021921;28;19920;-74
2023/10/12 13:06:07;;;;;;;;;;;;;;;16.38;100.00;101272.13;5019710;28;20307;-72
2023/10/12 13:08:33;;;;;;;;;;;;;;;16.46;100.00;101263.25;5053061;28;20665;-73
2023/10/12 13:10:59;;;;;;;;;;;;;;;16.50;100.00;101280.94;5032884;28;19921;-71
2023/10/12 13:13:24;;;;;;;;;;;;;;;16.49;100.00;101271.09;5055414;28;19920;-73
2023/10/12 13:15:50;;;;;;;;;;;;;;;16.51;100.00;101281.81;5051503;28;19928;-72
2023/10/12 13:18:15;;;;;;;;;;;;;;;16.47;100.00;101284.81;5034323;28;20058;-72
2023/10/12 13:20:46;;;;;;;;;;;;;;;16.48;100.00;101288.34;5032438;28;20481;-73
2023/10/12 13:23:15;;;;;;;;;;;;;;;16.45;100.00;101291.38;5031418;28;20014;-74
2023/10/12 13:25:40;;;;;;;;;;;;;;;16.44;100.00;101290.53;5032639;28;19924;-74
2023/10/12 13:28:10;;;;;;;;;;;;;;;16.56;100.00;101276.78;5038302;28;20422;-72
2023/10/12 13:30:35;;;;;;;;;;;;;;;16.51;100.00;101284.53;5035756;28;20062;-72
2023/10/12 13:33:00;;;;;;;;;;;;;;;16.54;100.00;101278.81;5033528;28;19948;-70
2023/10/12 13:35:36;;;;;;;;;;;;;;;16.51;100.00;101282.66;5035317;28;19964;-72
2023/10/12 13:38:03;;;;;;;;;;;;;;;16.45;100.00;101280.53;5050625;28;20043;-73
2023/10/12 13:40:29;;;;;;;;;;;;;;;16.38;100.00;101280.25;5019863;28;19962;-73
2023/10/12 13:43:01;;;;;;;;;;;;;;;16.37;100.00;101280.44;5037944;28;19928;-72
2023/10/12 13:45:28;;;;;;;;;;;;;;;16.36;100.00;101279.56;5054702;28;20623;-72
2023/10/12 13:47:54;;;;;;;;;;;;;;;16.26;100.00;101276.03;5023848;28;20334;-72
2023/10/12 13:50:19;;;;;;;;;;;;;;;16.24;100.00;101275.31;5035035;28;20383;-72
2023/10/12 13:52:44;;;;;;;;;;;;;;;16.25;100.00;101272.47;5022506;28;20266;-72
2023/10/12 13:55:13;;;;;;;;;;;;;;;16.20;100.00;101261.19;5017792;28;20252;-73
2023/10/12 13:57:51;;;;;;;;;;;;;;;16.14;100.00;101268.06;5037783;28;19920;-71
2023/10/12 14:00:25;;;;;;;;;;;;;;;16.11;100.00;101268.34;5036817;28;20330;-72
2023/10/12 14:02:56;;;;;;;;;;;;;;;16.11;100.00;101265.66;5038797;28;19924;-72